sensor_id;sensor_type;location;lat;lon;timestamp;temperature;humidity
16229;DHT22;8222;51.462;12.630;2022-12-29T00:00:09;10.90;99.90
16229;DHT22;8222;51.462;12.630;2022-12-29T00:02:35;10.80;99.90
16229;DHT22;8222;51.462;12.630;2022-12-29T00:05:03;10.90;99.90
16229;DHT22;8222;51.462;12.630;2022-12-29T00:07:31;10.90;99.90
16229;DHT22;8222;51.462;12.630;2022-12-29T00:09:57;11.00;99.90
16229;DHT22;8222;51.462;12.630;2022-12-29T00:12:23;10.90;99.90
16229;DHT22;8222;51.462;12.630;2022-12-29T00:14:48;10.70;99.90
16229;DHT22;8222;51.462;12.630;2022-12-29T00:17:33;10.80;99.90
16229;DHT22;8222;51.462;12.630;2022-12-29T00:20:03;10.80;99.90
16229;DHT22;8222;51.462;12.630;2022-12-29T00:22:47;10.70;99.90
16229;DHT22;8222;51.462;12.630;2022-12-29T00:25:35;10.80;99.90
16229;DHT22;8222;51.462;12.630;2022-12-29T00:28:19;10.90;99.90
16229;DHT22;8222;51.462;12.630;2022-12-29T00:31:09;10.80;99.90
16229;DHT22;8222;51.462;12.630;2022-12-29T00:33:55;10.90;99.90
16229;DHT22;8222;51.462;12.630;2022-12-29T00:36:41;10.90;99.90
16229;DHT22;8222;51.462;12.630;2022-12-29T00:39:12;10.90;99.90
16229;DHT22;8222;51.462;12.630;2022-12-29T00:42:06;10.90;99.90
16229;DHT22;8222;51.462;12.630;2022-12-29T00:44:51;11.00;99.90
16229;DHT22;8222;51.462;12.630;2022-12-29T00:47:17;11.00;99.90
16229;DHT22;8222;51.462;12.630;2022-12-29T00:49:42;11.00;99.90
16229;DHT22;8222;51.462;12.630;2022-12-29T00:52:12;11.10;99.90
16229;DHT22;8222;51.462;12.630;2022-12-29T00:54:39;11.10;99.90
16229;DHT22;8222;51.462;12.630;2022-12-29T00:57:07;11.10;99.90
16229;DHT22;8222;51.462;12.630;2022-12-29T00:59:37;11.10;99.90
16229;DHT22;8222;51.462;12.630;2022-12-29T01:02:05;11.10;99.90
16229;DHT22;8222;51.462;12.630;2022-12-29T01:04:37;11.00;99.90
16229;DHT22;8222;51.462;12.630;2022-12-29T01:07:08;11.00;99.90
16229;DHT22;8222;51.462;12.630;2022-12-29T01:09:33;11.00;99.90
16229;DHT22;8222;51.462;12.630;2022-12-29T01:12:18;11.10;99.90
16229;DHT22;8222;51.462;12.630;2022-12-29T01:15:04;11.00;99.90
16229;DHT22;8222;51.462;12.630;2022-12-29T01:17:29;11.00;99.90
16229;DHT22;8222;51.462;12.630;2022-12-29T01:19:55;11.00;99.90
16229;DHT22;8222;51.462;12.630;2022-12-29T01:22:21;10.90;99.90
16229;DHT22;8222;51.462;12.630;2022-12-29T01:24:48;10.90;99.90
16229;DHT22;8222;51.462;12.630;2022-12-29T01:27:14;11.00;99.90
16229;DHT22;8222;51.462;12.630;2022-12-29T01:29:42;11.00;99.90
16229;DHT22;8222;51.462;12.630;2022-12-29T01:32:07;11.10;99.90
16229;DHT22;8222;51.462;12.630;2022-12-29T01:34:33;11.00;99.90
16229;DHT22;8222;51.462;12.630;2022-12-29T01:36:59;10.90;99.90
16229;DHT22;8222;51.462;12.630;2022-12-29T01:39:24;10.90;99.90
16229;DHT22;8222;51.462;12.630;2022-12-29T01:41:50;11.00;99.90
16229;DHT22;8222;51.462;12.630;2022-12-29T01:44:51;11.10;99.90
16229;DHT22;8222;51.462;12.630;2022-12-29T01:47:30;10.90;99.90
16229;DHT22;8222;51.462;12.630;2022-12-29T01:50:03;11.00;99.90
16229;DHT22;8222;51.462;12.630;2022-12-29T01:52:32;11.10;99.90
16229;DHT22;8222;51.462;12.630;2022-12-29T01:55:00;11.00;99.90
16229;DHT22;8222;51.462;12.630;2022-12-29T01:57:34;11.00;99.90
16229;DHT22;8222;51.462;12.630;2022-12-29T02:00:05;10.90;99.90
16229;DHT22;8222;51.462;12.630;2022-12-29T02:02:33;10.90;99.90
16229;DHT22;8222;51.462;12.630;2022-12-29T02:05:03;10.80;99.90
16229;DHT22;8222;51.462;12.630;2022-12-29T02:07:32;10.80;99.90
16229;DHT22;8222;51.462;12.630;2022-12-29T02:09:58;10.80;99.90
16229;DHT22;8222;51.462;12.630;2022-12-29T02:12:25;10.80;99.90
16229;DHT22;8222;51.462;12.630;2022-12-29T02:14:57;10.70;99.90
16229;DHT22;8222;51.462;12.630;2022-12-29T02:22:58;10.70;99.90
16229;DHT22;8222;51.462;12.630;2022-12-29T02:36:39;10.80;99.90
16229;DHT22;8222;51.462;12.630;2022-12-29T02:45:08;11.00;99.90
16229;DHT22;8222;51.462;12.630;2022-12-29T02:48:29;11.00;99.90
16229;DHT22;8222;51.462;12.630;2022-12-29T02:50:58;11.00;99.90
16229;DHT22;8222;51.462;12.630;2022-12-29T02:53:25;11.00;99.90
16229;DHT22;8222;51.462;12.630;2022-12-29T02:56:25;11.00;99.90
16229;DHT22;8222;51.462;12.630;2022-12-29T02:58:53;11.00;99.90
16229;DHT22;8222;51.462;12.630;2022-12-29T03:04:37;11.00;99.90
16229;DHT22;8222;51.462;12.630;2022-12-29T03:12:44;11.10;99.90
16229;DHT22;8222;51.462;12.630;2022-12-29T03:15:36;11.00;99.90
16229;DHT22;8222;51.462;12.630;2022-12-29T03:18:29;10.90;99.90
16229;DHT22;8222;51.462;12.630;2022-12-29T03:24:22;10.90;99.90
16229;DHT22;8222;51.462;12.630;2022-12-29T03:26:48;11.00;99.90
16229;DHT22;8222;51.462;12.630;2022-12-29T03:29:17;11.00;99.90
16229;DHT22;8222;51.462;12.630;2022-12-29T03:31:44;11.10;99.90
16229;DHT22;8222;51.462;12.630;2022-12-29T03:34:11;11.20;99.90
16229;DHT22;8222;51.462;12.630;2022-12-29T03:36:44;11.20;99.90
16229;DHT22;8222;51.462;12.630;2022-12-29T03:39:13;11.10;99.90
16229;DHT22;8222;51.462;12.630;2022-12-29T03:41:41;11.00;99.90
16229;DHT22;8222;51.462;12.630;2022-12-29T03:44:08;11.10;99.90
16229;DHT22;8222;51.462;12.630;2022-12-29T03:46:35;11.10;99.90
16229;DHT22;8222;51.462;12.630;2022-12-29T03:49:00;11.20;99.90
16229;DHT22;8222;51.462;12.630;2022-12-29T03:51:26;11.20;99.90
16229;DHT22;8222;51.462;12.630;2022-12-29T03:53:52;11.20;99.90
16229;DHT22;8222;51.462;12.630;2022-12-29T03:56:17;11.10;99.90
16229;DHT22;8222;51.462;12.630;2022-12-29T03:58:43;11.20;99.90
16229;DHT22;8222;51.462;12.630;2022-12-29T04:01:08;11.10;99.90
16229;DHT22;8222;51.462;12.630;2022-12-29T04:03:34;11.20;99.90
16229;DHT22;8222;51.462;12.630;2022-12-29T04:06:03;11.30;99.90
16229;DHT22;8222;51.462;12.630;2022-12-29T04:08:30;11.20;99.90
16229;DHT22;8222;51.462;12.630;2022-12-29T04:10:56;11.20;99.90
16229;DHT22;8222;51.462;12.630;2022-12-29T04:13:21;11.20;99.90
16229;DHT22;8222;51.462;12.630;2022-12-29T04:15:47;11.30;99.90
16229;DHT22;8222;51.462;12.630;2022-12-29T04:18:13;11.30;99.90
16229;DHT22;8222;51.462;12.630;2022-12-29T04:20:40;11.30;99.90
16229;DHT22;8222;51.462;12.630;2022-12-29T04:23:24;11.40;99.90
16229;DHT22;8222;51.462;12.630;2022-12-29T04:25:50;11.30;99.90
16229;DHT22;8222;51.462;12.630;2022-12-29T04:28:18;11.20;99.90
16229;DHT22;8222;51.462;12.630;2022-12-29T04:30:44;11.10;99.90
16229;DHT22;8222;51.462;12.630;2022-12-29T04:33:10;11.10;99.90
16229;DHT22;8222;51.462;12.630;2022-12-29T04:35:36;11.10;99.90
16229;DHT22;8222;51.462;12.630;2022-12-29T04:38:04;11.20;99.90
16229;DHT22;8222;51.462;12.630;2022-12-29T04:40:30;11.10;99.90
16229;DHT22;8222;51.462;12.630;2022-12-29T04:42:56;11.00;99.90
16229;DHT22;8222;51.462;12.630;2022-12-29T04:45:23;11.20;99.90
16229;DHT22;8222;51.462;12.630;2022-12-29T04:47:49;11.70;99.90
16229;DHT22;8222;51.462;12.630;2022-12-29T04:50:15;11.40;99.90
16229;DHT22;8222;51.462;12.630;2022-12-29T04:52:41;11.30;99.90
16229;DHT22;8222;51.462;12.630;2022-12-29T04:55:07;11.30;99.90
16229;DHT22;8222;51.462;12.630;2022-12-29T04:57:33;11.40;99.90
16229;DHT22;8222;51.462;12.630;2022-12-29T05:00:00;11.50;99.90
16229;DHT22;8222;51.462;12.630;2022-12-29T05:02:26;11.40;99.90
16229;DHT22;8222;51.462;12.630;2022-12-29T05:04:52;11.40;99.90
16229;DHT22;8222;51.462;12.630;2022-12-29T05:07:18;11.50;99.90
16229;DHT22;8222;51.462;12.630;2022-12-29T05:09:45;11.50;99.90
16229;DHT22;8222;51.462;12.630;2022-12-29T05:12:11;11.60;99.90
16229;DHT22;8222;51.462;12.630;2022-12-29T05:14:36;11.50;99.90
16229;DHT22;8222;51.462;12.630;2022-12-29T05:17:02;11.40;99.90
16229;DHT22;8222;51.462;12.630;2022-12-29T05:19:29;11.40;99.90
16229;DHT22;8222;51.462;12.630;2022-12-29T05:21:55;11.50;99.90
16229;DHT22;8222;51.462;12.630;2022-12-29T05:24:23;11.30;99.90
16229;DHT22;8222;51.462;12.630;2022-12-29T05:26:48;11.30;99.90
16229;DHT22;8222;51.462;12.630;2022-12-29T05:29:14;11.20;99.90
16229;DHT22;8222;51.462;12.630;2022-12-29T05:31:41;11.20;99.90
16229;DHT22;8222;51.462;12.630;2022-12-29T05:34:08;11.30;99.90
16229;DHT22;8222;51.462;12.630;2022-12-29T05:36:34;11.30;99.90
16229;DHT22;8222;51.462;12.630;2022-12-29T05:39:00;11.20;99.90
16229;DHT22;8222;51.462;12.630;2022-12-29T05:41:27;11.20;99.90
16229;DHT22;8222;51.462;12.630;2022-12-29T05:43:53;11.20;99.90
16229;DHT22;8222;51.462;12.630;2022-12-29T05:46:19;11.20;99.90
16229;DHT22;8222;51.462;12.630;2022-12-29T05:48:46;11.10;99.90
16229;DHT22;8222;51.462;12.630;2022-12-29T05:51:17;11.10;99.90
16229;DHT22;8222;51.462;12.630;2022-12-29T05:53:44;11.10;99.90
16229;DHT22;8222;51.462;12.630;2022-12-29T05:56:10;11.20;99.90
16229;DHT22;8222;51.462;12.630;2022-12-29T05:58:36;11.10;99.90
16229;DHT22;8222;51.462;12.630;2022-12-29T06:01:01;11.10;99.90
16229;DHT22;8222;51.462;12.630;2022-12-29T06:03:27;11.10;99.90
16229;DHT22;8222;51.462;12.630;2022-12-29T06:05:52;11.10;99.90
16229;DHT22;8222;51.462;12.630;2022-12-29T06:08:18;11.00;99.90
16229;DHT22;8222;51.462;12.630;2022-12-29T06:10:44;10.90;99.90
16229;DHT22;8222;51.462;12.630;2022-12-29T06:13:09;10.90;99.90
16229;DHT22;8222;51.462;12.630;2022-12-29T06:15:35;11.00;99.90
16229;DHT22;8222;51.462;12.630;2022-12-29T06:18:01;11.10;99.90
16229;DHT22;8222;51.462;12.630;2022-12-29T06:20:28;11.10;99.90
16229;DHT22;8222;51.462;12.630;2022-12-29T06:22:54;11.00;99.90
16229;DHT22;8222;51.462;12.630;2022-12-29T06:25:20;11.00;99.90
16229;DHT22;8222;51.462;12.630;2022-12-29T06:27:45;11.10;99.90
16229;DHT22;8222;51.462;12.630;2022-12-29T06:30:12;11.10;99.90
16229;DHT22;8222;51.462;12.630;2022-12-29T06:32:38;11.10;99.90
16229;DHT22;8222;51.462;12.630;2022-12-29T06:35:05;11.00;99.90
16229;DHT22;8222;51.462;12.630;2022-12-29T06:37:31;11.10;99.90
16229;DHT22;8222;51.462;12.630;2022-12-29T06:39:57;11.20;99.90
16229;DHT22;8222;51.462;12.630;2022-12-29T06:42:23;11.30;99.90
16229;DHT22;8222;51.462;12.630;2022-12-29T06:44:52;11.30;99.90
16229;DHT22;8222;51.462;12.630;2022-12-29T06:47:17;11.40;99.90
16229;DHT22;8222;51.462;12.630;2022-12-29T06:49:47;11.50;99.90
16229;DHT22;8222;51.462;12.630;2022-12-29T06:52:14;11.60;99.90
16229;DHT22;8222;51.462;12.630;2022-12-29T06:54:42;11.50;99.90
16229;DHT22;8222;51.462;12.630;2022-12-29T06:57:08;11.50;99.90
16229;DHT22;8222;51.462;12.630;2022-12-29T06:59:38;11.50;99.90
16229;DHT22;8222;51.462;12.630;2022-12-29T07:02:04;11.60;99.90
16229;DHT22;8222;51.462;12.630;2022-12-29T07:04:30;11.60;99.90
16229;DHT22;8222;51.462;12.630;2022-12-29T07:06:58;11.50;99.90
16229;DHT22;8222;51.462;12.630;2022-12-29T07:09:26;11.60;99.90
16229;DHT22;8222;51.462;12.630;2022-12-29T07:11:53;11.60;99.90
16229;DHT22;8222;51.462;12.630;2022-12-29T07:14:19;11.70;99.90
16229;DHT22;8222;51.462;12.630;2022-12-29T07:16:45;11.70;99.90
16229;DHT22;8222;51.462;12.630;2022-12-29T07:19:12;11.70;99.90
16229;DHT22;8222;51.462;12.630;2022-12-29T07:21:38;11.60;99.90
16229;DHT22;8222;51.462;12.630;2022-12-29T07:24:03;11.60;99.90
16229;DHT22;8222;51.462;12.630;2022-12-29T07:26:29;11.50;99.90
16229;DHT22;8222;51.462;12.630;2022-12-29T07:28:55;11.50;99.90
16229;DHT22;8222;51.462;12.630;2022-12-29T07:31:22;11.70;99.90
16229;DHT22;8222;51.462;12.630;2022-12-29T07:33:49;11.40;99.90
16229;DHT22;8222;51.462;12.630;2022-12-29T07:36:16;11.50;99.90
16229;DHT22;8222;51.462;12.630;2022-12-29T07:38:43;11.50;99.90
16229;DHT22;8222;51.462;12.630;2022-12-29T07:41:09;11.50;99.90
16229;DHT22;8222;51.462;12.630;2022-12-29T07:43:36;11.50;99.90
16229;DHT22;8222;51.462;12.630;2022-12-29T07:46:02;11.60;99.90
16229;DHT22;8222;51.462;12.630;2022-12-29T07:48:28;11.50;99.90
16229;DHT22;8222;51.462;12.630;2022-12-29T07:50:56;11.50;99.90
16229;DHT22;8222;51.462;12.630;2022-12-29T07:53:21;11.40;99.90
16229;DHT22;8222;51.462;12.630;2022-12-29T07:55:47;11.50;99.90
16229;DHT22;8222;51.462;12.630;2022-12-29T07:58:15;11.70;99.90
16229;DHT22;8222;51.462;12.630;2022-12-29T08:00:44;11.60;99.90
16229;DHT22;8222;51.462;12.630;2022-12-29T08:03:09;11.70;99.90
16229;DHT22;8222;51.462;12.630;2022-12-29T08:05:35;11.70;99.90
16229;DHT22;8222;51.462;12.630;2022-12-29T08:08:01;11.60;99.90
16229;DHT22;8222;51.462;12.630;2022-12-29T08:10:28;11.60;99.90
16229;DHT22;8222;51.462;12.630;2022-12-29T08:12:54;11.70;99.90
16229;DHT22;8222;51.462;12.630;2022-12-29T08:15:20;11.70;99.90
16229;DHT22;8222;51.462;12.630;2022-12-29T08:17:45;11.80;99.90
16229;DHT22;8222;51.462;12.630;2022-12-29T08:20:11;11.90;99.90
16229;DHT22;8222;51.462;12.630;2022-12-29T08:22:39;11.80;99.90
16229;DHT22;8222;51.462;12.630;2022-12-29T08:25:07;11.70;99.90
16229;DHT22;8222;51.462;12.630;2022-12-29T08:27:36;11.70;99.90
16229;DHT22;8222;51.462;12.630;2022-12-29T08:30:02;11.80;99.90
16229;DHT22;8222;51.462;12.630;2022-12-29T08:32:32;11.70;99.90
16229;DHT22;8222;51.462;12.630;2022-12-29T08:34:58;11.60;99.90
16229;DHT22;8222;51.462;12.630;2022-12-29T08:37:24;11.70;99.90
16229;DHT22;8222;51.462;12.630;2022-12-29T08:39:50;11.70;99.90
16229;DHT22;8222;51.462;12.630;2022-12-29T08:42:15;11.70;99.90
16229;DHT22;8222;51.462;12.630;2022-12-29T08:44:41;11.70;99.90
16229;DHT22;8222;51.462;12.630;2022-12-29T08:47:08;11.80;99.90
16229;DHT22;8222;51.462;12.630;2022-12-29T08:49:34;11.90;99.90
16229;DHT22;8222;51.462;12.630;2022-12-29T08:52:03;12.10;99.90
16229;DHT22;8222;51.462;12.630;2022-12-29T08:54:31;12.10;99.90
16229;DHT22;8222;51.462;12.630;2022-12-29T08:56:56;12.20;99.90
16229;DHT22;8222;51.462;12.630;2022-12-29T08:59:22;12.30;99.90
16229;DHT22;8222;51.462;12.630;2022-12-29T09:01:47;12.40;99.90
16229;DHT22;8222;51.462;12.630;2022-12-29T09:04:13;12.50;99.90
16229;DHT22;8222;51.462;12.630;2022-12-29T09:06:39;12.40;99.90
16229;DHT22;8222;51.462;12.630;2022-12-29T09:09:04;12.60;99.90
16229;DHT22;8222;51.462;12.630;2022-12-29T09:11:33;12.60;99.90
16229;DHT22;8222;51.462;12.630;2022-12-29T09:14:01;12.60;99.90
16229;DHT22;8222;51.462;12.630;2022-12-29T09:16:27;12.50;99.90
16229;DHT22;8222;51.462;12.630;2022-12-29T09:18:53;12.40;99.90
16229;DHT22;8222;51.462;12.630;2022-12-29T09:21:20;12.50;99.90
16229;DHT22;8222;51.462;12.630;2022-12-29T09:23:46;12.60;99.90
16229;DHT22;8222;51.462;12.630;2022-12-29T09:26:12;12.70;99.90
16229;DHT22;8222;51.462;12.630;2022-12-29T09:28:38;12.60;99.90
16229;DHT22;8222;51.462;12.630;2022-12-29T09:31:04;12.60;99.90
16229;DHT22;8222;51.462;12.630;2022-12-29T09:33:30;12.70;99.90
16229;DHT22;8222;51.462;12.630;2022-12-29T09:35:58;12.80;99.90
16229;DHT22;8222;51.462;12.630;2022-12-29T09:38:25;12.70;99.90
16229;DHT22;8222;51.462;12.630;2022-12-29T09:41:03;12.70;99.90
16229;DHT22;8222;51.462;12.630;2022-12-29T09:46:25;12.80;99.90
16229;DHT22;8222;51.462;12.630;2022-12-29T09:51:54;13.00;99.90
16229;DHT22;8222;51.462;12.630;2022-12-29T09:56:57;13.10;99.90
16229;DHT22;8222;51.462;12.630;2022-12-29T09:59:39;13.30;99.90
16229;DHT22;8222;51.462;12.630;2022-12-29T10:04:44;13.30;99.90
16229;DHT22;8222;51.462;12.630;2022-12-29T10:13:01;13.60;99.90
16229;DHT22;8222;51.462;12.630;2022-12-29T10:18:44;13.80;99.90
16229;DHT22;8222;51.462;12.630;2022-12-29T10:21:52;13.90;99.90
16229;DHT22;8222;51.462;12.630;2022-12-29T10:24:21;13.90;99.90
16229;DHT22;8222;51.462;12.630;2022-12-29T10:26:50;13.90;99.90
16229;DHT22;8222;51.462;12.630;2022-12-29T10:29:20;13.80;99.90
16229;DHT22;8222;51.462;12.630;2022-12-29T10:31:58;13.80;99.90
16229;DHT22;8222;51.462;12.630;2022-12-29T10:34:41;13.90;99.90
16229;DHT22;8222;51.462;12.630;2022-12-29T10:39:58;13.70;99.90
16229;DHT22;8222;51.462;12.630;2022-12-29T10:42:34;13.80;99.90
16229;DHT22;8222;51.462;12.630;2022-12-29T10:45:02;13.80;99.90
16229;DHT22;8222;51.462;12.630;2022-12-29T10:47:37;13.90;99.90
16229;DHT22;8222;51.462;12.630;2022-12-29T10:50:04;14.00;99.90
16229;DHT22;8222;51.462;12.630;2022-12-29T10:52:33;14.00;99.90
16229;DHT22;8222;51.462;12.630;2022-12-29T10:55:05;14.00;99.90
16229;DHT22;8222;51.462;12.630;2022-12-29T10:57:41;14.20;99.90
16229;DHT22;8222;51.462;12.630;2022-12-29T11:00:13;14.30;99.90
16229;DHT22;8222;51.462;12.630;2022-12-29T11:03:17;14.20;99.90
16229;DHT22;8222;51.462;12.630;2022-12-29T11:05:49;14.30;99.90
16229;DHT22;8222;51.462;12.630;2022-12-29T11:08:21;14.20;99.90
16229;DHT22;8222;51.462;12.630;2022-12-29T11:11:01;14.10;99.90
16229;DHT22;8222;51.462;12.630;2022-12-29T11:13:31;14.20;99.90
16229;DHT22;8222;51.462;12.630;2022-12-29T11:15:57;14.10;99.90
16229;DHT22;8222;51.462;12.630;2022-12-29T11:18:38;14.10;99.90
16229;DHT22;8222;51.462;12.630;2022-12-29T11:21:52;14.30;99.90
16229;DHT22;8222;51.462;12.630;2022-12-29T11:24:28;14.40;99.90
16229;DHT22;8222;51.462;12.630;2022-12-29T11:26:55;14.50;99.90
16229;DHT22;8222;51.462;12.630;2022-12-29T11:29:40;14.50;99.90
16229;DHT22;8222;51.462;12.630;2022-12-29T11:32:24;14.60;99.90
16229;DHT22;8222;51.462;12.630;2022-12-29T11:34:50;14.50;99.90
16229;DHT22;8222;51.462;12.630;2022-12-29T11:37:32;14.50;99.90
16229;DHT22;8222;51.462;12.630;2022-12-29T11:40:10;14.60;99.90
16229;DHT22;8222;51.462;12.630;2022-12-29T11:42:51;14.70;99.90
16229;DHT22;8222;51.462;12.630;2022-12-29T11:45:22;14.60;99.90
16229;DHT22;8222;51.462;12.630;2022-12-29T11:47:57;14.70;99.90
16229;DHT22;8222;51.462;12.630;2022-12-29T11:50:32;14.90;99.90
16229;DHT22;8222;51.462;12.630;2022-12-29T11:53:26;15.00;99.90
16229;DHT22;8222;51.462;12.630;2022-12-29T11:55:59;15.20;99.90
16229;DHT22;8222;51.462;12.630;2022-12-29T11:58:33;15.10;99.90
16229;DHT22;8222;51.462;12.630;2022-12-29T12:01:24;15.10;99.90
16229;DHT22;8222;51.462;12.630;2022-12-29T12:06:27;15.20;99.90
16229;DHT22;8222;51.462;12.630;2022-12-29T12:09:04;15.30;99.90
16229;DHT22;8222;51.462;12.630;2022-12-29T12:11:37;15.40;99.90
16229;DHT22;8222;51.462;12.630;2022-12-29T12:16:52;15.60;99.90
16229;DHT22;8222;51.462;12.630;2022-12-29T12:19:32;15.60;99.90
16229;DHT22;8222;51.462;12.630;2022-12-29T12:22:12;15.70;99.90
16229;DHT22;8222;51.462;12.630;2022-12-29T12:24:55;15.80;99.90
16229;DHT22;8222;51.462;12.630;2022-12-29T12:27:43;15.90;99.90
16229;DHT22;8222;51.462;12.630;2022-12-29T12:30:19;15.80;99.90
16229;DHT22;8222;51.462;12.630;2022-12-29T12:38:12;15.80;99.90
16229;DHT22;8222;51.462;12.630;2022-12-29T12:44:23;15.70;99.90
16229;DHT22;8222;51.462;12.630;2022-12-29T13:00:43;15.80;99.90
16229;DHT22;8222;51.462;12.630;2022-12-29T13:03:22;15.80;99.90
16229;DHT22;8222;51.462;12.630;2022-12-29T13:11:07;15.90;99.90
16229;DHT22;8222;51.462;12.630;2022-12-29T13:16:29;16.00;99.90
16229;DHT22;8222;51.462;12.630;2022-12-29T13:19:29;15.90;99.90
16229;DHT22;8222;51.462;12.630;2022-12-29T13:24:54;15.70;99.90
16229;DHT22;8222;51.462;12.630;2022-12-29T13:30:13;15.70;99.90
16229;DHT22;8222;51.462;12.630;2022-12-29T13:35:35;15.70;99.90
16229;DHT22;8222;51.462;12.630;2022-12-29T13:38:18;15.60;99.90
16229;DHT22;8222;51.462;12.630;2022-12-29T13:40:49;15.60;99.90
16229;DHT22;8222;51.462;12.630;2022-12-29T13:43:18;15.50;99.90
16229;DHT22;8222;51.462;12.630;2022-12-29T13:45:45;15.50;99.90
16229;DHT22;8222;51.462;12.630;2022-12-29T13:48:23;15.50;99.90
16229;DHT22;8222;51.462;12.630;2022-12-29T13:50:57;15.40;99.90
16229;DHT22;8222;51.462;12.630;2022-12-29T13:56:23;15.20;99.90
16229;DHT22;8222;51.462;12.630;2022-12-29T13:59:08;15.40;99.90
16229;DHT22;8222;51.462;12.630;2022-12-29T14:01:46;15.30;99.90
16229;DHT22;8222;51.462;12.630;2022-12-29T14:04:20;15.40;99.90
16229;DHT22;8222;51.462;12.630;2022-12-29T14:07:18;15.20;99.90
16229;DHT22;8222;51.462;12.630;2022-12-29T14:09:55;15.20;99.90
16229;DHT22;8222;51.462;12.630;2022-12-29T14:12:40;15.20;99.90
16229;DHT22;8222;51.462;12.630;2022-12-29T14:17:39;15.20;99.90
16229;DHT22;8222;51.462;12.630;2022-12-29T14:20:16;15.10;99.90
16229;DHT22;8222;51.462;12.630;2022-12-29T14:23:16;14.80;99.90
16229;DHT22;8222;51.462;12.630;2022-12-29T14:28:42;14.50;99.90
16229;DHT22;8222;51.462;12.630;2022-12-29T14:33:41;14.20;99.90
16229;DHT22;8222;51.462;12.630;2022-12-29T14:39:01;14.10;99.90
16229;DHT22;8222;51.462;12.630;2022-12-29T14:41:33;14.10;99.90
16229;DHT22;8222;51.462;12.630;2022-12-29T14:44:12;14.10;99.90
16229;DHT22;8222;51.462;12.630;2022-12-29T14:47:05;14.00;99.90
16229;DHT22;8222;51.462;12.630;2022-12-29T14:49:40;13.00;99.90
16229;DHT22;8222;51.462;12.630;2022-12-29T14:52:27;13.70;99.90
16229;DHT22;8222;51.462;12.630;2022-12-29T14:57:40;13.50;99.90
16229;DHT22;8222;51.462;12.630;2022-12-29T15:00:18;13.50;99.90
16229;DHT22;8222;51.462;12.630;2022-12-29T15:02:47;13.50;99.90
16229;DHT22;8222;51.462;12.630;2022-12-29T15:05:28;13.40;99.90
16229;DHT22;8222;51.462;12.630;2022-12-29T15:07:56;13.30;99.90
16229;DHT22;8222;51.462;12.630;2022-12-29T15:10:23;13.20;99.90
16229;DHT22;8222;51.462;12.630;2022-12-29T15:12:53;13.10;99.90
16229;DHT22;8222;51.462;12.630;2022-12-29T15:15:26;13.10;99.90
16229;DHT22;8222;51.462;12.630;2022-12-29T15:17:54;13.10;99.90
16229;DHT22;8222;51.462;12.630;2022-12-29T15:20:29;13.10;99.90
16229;DHT22;8222;51.462;12.630;2022-12-29T15:23:09;13.00;99.90
16229;DHT22;8222;51.462;12.630;2022-12-29T15:25:51;12.90;99.90
16229;DHT22;8222;51.462;12.630;2022-12-29T15:28:23;12.80;99.90
16229;DHT22;8222;51.462;12.630;2022-12-29T15:31:03;12.70;99.90
16229;DHT22;8222;51.462;12.630;2022-12-29T15:33:30;12.80;99.90
16229;DHT22;8222;51.462;12.630;2022-12-29T15:36:03;12.90;99.90
16229;DHT22;8222;51.462;12.630;2022-12-29T15:38:30;12.90;99.90
16229;DHT22;8222;51.462;12.630;2022-12-29T15:41:04;12.80;99.90
16229;DHT22;8222;51.462;12.630;2022-12-29T15:46:14;12.80;99.90
16229;DHT22;8222;51.462;12.630;2022-12-29T15:48:41;12.60;99.90
16229;DHT22;8222;51.462;12.630;2022-12-29T15:51:21;12.60;99.90
16229;DHT22;8222;51.462;12.630;2022-12-29T15:53:51;12.50;99.90
16229;DHT22;8222;51.462;12.630;2022-12-29T15:56:18;12.60;99.90
16229;DHT22;8222;51.462;12.630;2022-12-29T15:58:51;12.50;99.90
16229;DHT22;8222;51.462;12.630;2022-12-29T16:01:24;12.40;99.90
16229;DHT22;8222;51.462;12.630;2022-12-29T16:03:53;12.40;99.90
16229;DHT22;8222;51.462;12.630;2022-12-29T16:06:36;12.40;99.90
16229;DHT22;8222;51.462;12.630;2022-12-29T16:09:14;12.40;99.90
16229;DHT22;8222;51.462;12.630;2022-12-29T16:11:51;12.30;99.90
16229;DHT22;8222;51.462;12.630;2022-12-29T16:16:57;12.20;99.90
16229;DHT22;8222;51.462;12.630;2022-12-29T16:19:32;12.10;99.90
16229;DHT22;8222;51.462;12.630;2022-12-29T16:22:01;12.10;99.90
16229;DHT22;8222;51.462;12.630;2022-12-29T16:24:32;12.30;99.90
16229;DHT22;8222;51.462;12.630;2022-12-29T16:27:01;12.00;99.90
16229;DHT22;8222;51.462;12.630;2022-12-29T16:29:29;11.90;99.90
16229;DHT22;8222;51.462;12.630;2022-12-29T16:31:58;11.80;99.90
16229;DHT22;8222;51.462;12.630;2022-12-29T17:08:50;10.90;99.90
16229;DHT22;8222;51.462;12.630;2022-12-29T17:11:33;10.80;99.90
16229;DHT22;8222;51.462;12.630;2022-12-29T17:14:41;10.80;99.90
16229;DHT22;8222;51.462;12.630;2022-12-29T17:19:50;10.80;99.90
16229;DHT22;8222;51.462;12.630;2022-12-29T17:22:20;10.80;99.90
16229;DHT22;8222;51.462;12.630;2022-12-29T17:24:46;10.70;99.90
16229;DHT22;8222;51.462;12.630;2022-12-29T17:29:51;10.60;99.90
16229;DHT22;8222;51.462;12.630;2022-12-29T17:32:18;10.60;99.90
16229;DHT22;8222;51.462;12.630;2022-12-29T17:34:44;10.50;99.90
16229;DHT22;8222;51.462;12.630;2022-12-29T17:37:31;10.50;99.90
16229;DHT22;8222;51.462;12.630;2022-12-29T17:39:57;10.40;99.90
16229;DHT22;8222;51.462;12.630;2022-12-29T17:42:25;10.40;99.90
16229;DHT22;8222;51.462;12.630;2022-12-29T17:44:51;10.30;99.90
16229;DHT22;8222;51.462;12.630;2022-12-29T17:47:17;10.50;99.90
16229;DHT22;8222;51.462;12.630;2022-12-29T17:49:43;10.40;99.90
16229;DHT22;8222;51.462;12.630;2022-12-29T17:52:12;10.40;99.90
16229;DHT22;8222;51.462;12.630;2022-12-29T17:54:46;10.30;99.90
16229;DHT22;8222;51.462;12.630;2022-12-29T17:57:15;10.30;99.90
16229;DHT22;8222;51.462;12.630;2022-12-29T17:59:42;10.20;99.90
16229;DHT22;8222;51.462;12.630;2022-12-29T18:02:29;10.30;99.90
16229;DHT22;8222;51.462;12.630;2022-12-29T18:04:58;10.20;99.90
16229;DHT22;8222;51.462;12.630;2022-12-29T18:07:28;10.10;99.90
16229;DHT22;8222;51.462;12.630;2022-12-29T18:09:54;10.10;99.90
16229;DHT22;8222;51.462;12.630;2022-12-29T18:12:27;10.10;99.90
16229;DHT22;8222;51.462;12.630;2022-12-29T18:14:54;10.00;99.90
16229;DHT22;8222;51.462;12.630;2022-12-29T18:17:23;10.10;99.90
16229;DHT22;8222;51.462;12.630;2022-12-29T18:19:51;10.10;99.90
16229;DHT22;8222;51.462;12.630;2022-12-29T18:22:20;10.20;99.90
16229;DHT22;8222;51.462;12.630;2022-12-29T18:24:45;10.20;99.90
16229;DHT22;8222;51.462;12.630;2022-12-29T18:27:12;10.20;99.90
16229;DHT22;8222;51.462;12.630;2022-12-29T18:29:40;10.20;99.90
16229;DHT22;8222;51.462;12.630;2022-12-29T18:32:13;10.10;99.90
16229;DHT22;8222;51.462;12.630;2022-12-29T18:34:42;10.10;99.90
16229;DHT22;8222;51.462;12.630;2022-12-29T18:37:27;10.10;99.90